PORT of AARHUS

ประเทศ: Denmark ประเทศ: Denmark (DK)
แลตติจูด/ลองกิจูด: 56.154° / 10.2295° แสดงบนแผนที่ แสดงบนแผนที่
เวลาท้องถิ่น:  UTC +1
UN/LOCODE: DKAAR
เรือทีอยู่ในท่า: 5
เวลาถึงที่คาดหมาย: 9

เวลาถึง/ออกเดินทางล่าสุด


ชื่อเรือ
เวลาถึง (UTC)
เวลาถึง (LT)
ออกเดินทาง (UTC)
ออกเดินทาง (LT)
Vessel Type: เรือบรรทุกท้ำมัน  OW AALBORG 2014-10-25 20:40:00 2014-10-25 21:40:00 2014-10-26 07:02:00 2014-10-26 08:02:00
Vessel Type: เรือทัก, เรือพนักงานนำร่อง, ฯลฯ  OBELIX 2014-10-26 04:12:00 2014-10-26 05:12:00 2014-10-26 06:59:00 2014-10-26 07:59:00
SAMSON 2014-10-26 04:05:00 2014-10-26 05:05:00
Vessel Type: เรือทัก, เรือพนักงานนำร่อง, ฯลฯ  AARHUS PILOT 2014-10-26 03:28:00 2014-10-26 04:28:00
Vessel Type: เรือทัก, เรือพนักงานนำร่อง, ฯลฯ  AARHUS PILOT 2014-10-26 02:08:00 2014-10-26 03:08:00 2014-10-26 03:17:00 2014-10-26 04:17:00
Vessel Type: เรือทัก, เรือพนักงานนำร่อง, ฯลฯ  AARHUS PILOT 2014-10-25 11:31:00 2014-10-25 12:31:00 2014-10-26 02:07:00 2014-10-26 03:07:00
Vessel Type: เรือบรรทุกท้ำมัน  SUNDSTRAUM 2014-10-25 11:35:00 2014-10-25 12:35:00 2014-10-26 02:04:00 2014-10-26 03:04:00
Vessel Type: เรือความเร็วสูง  KATEXPRESS 1 2014-10-25 18:23:00 2014-10-25 20:23:00
Vessel Type: เรือความเร็วสูง  KATEXPRESS 1 2014-10-25 14:54:00 2014-10-25 16:54:00 2014-10-25 15:36:00 2014-10-25 17:36:00
Vessel Type: เรือสินค้า  WARNOW 2014-10-25 14:08:00 2014-10-25 16:08:00

เวลาถึงที่คาดหมาย


ชื่อเรือ
Scheduled Arrival (UTC)
เวลาถึงที่วางไว้ (เวลาท้องถิ่น)
เวลาถึงโดยประมาณ (UTC)
เวลาถึงโดยประมาณ (เวลาท้องถิ่น)
Vessel Type: เรือสินค้า  LIFANA 2014-10-25 08:00:00 2014-10-25 09:00:00
Vessel Type: เรือบรรทุกท้ำมัน  FAIRCHEM FRIESIAN 2014-10-26 06:00:00 2014-10-26 07:00:00
Vessel Type: เรือทัก, เรือพนักงานนำร่อง, ฯลฯ  OBELIX 2014-10-26 10:00:00 2014-10-26 11:00:00
Vessel Type: เรือสินค้า  AMIRANTE 2014-10-27 02:00:00 2014-10-27 03:00:00 2014-10-28 02:40:00 2014-10-28 04:40:00
Vessel Type: เรือสินค้า  MATZ MAERSK 2014-10-27 03:30:00 2014-10-27 04:30:00 2014-10-27 00:20:00 2014-10-27 01:20:00
Vessel Type: เรือบรรทุกท้ำมัน  SUNDSTRAUM 2014-10-27 09:00:00 2014-10-27 10:00:00 2014-10-26 08:52:00 2014-10-26 09:52:00
Vessel Type: เรือสินค้า  NJORD 2014-10-27 16:00:00 2014-10-27 17:00:00 2014-10-27 20:56:00 2014-10-27 21:56:00
Vessel Type: เรือสินค้า  BEAUMAIDEN 2014-10-28 06:00:00 2014-10-28 08:00:00 2014-10-28 15:57:00 2014-10-28 17:57:00
Vessel Type: เรือสินค้า  FEDERAL MIRAMICHI 2014-11-01 18:00:00 2014-11-01 19:00:00 2014-11-02 12:49:00 2014-11-02 13:49:00

Wind Forecast


    
เวลา (UTC)
ความเร็ว
Direction
Temperature
2014-10-26 06:00:00 17 knots 206° 11°C
2014-10-26 09:00:00 19 knots 208° 12°C
2014-10-26 12:00:00 20 knots 213° 14°C
2014-10-26 15:00:00 21 knots 220° 14°C
2014-10-26 18:00:00 21 knots 216° 12°C
2014-10-26 21:00:00 20 knots 220° 13°C
2014-10-27 00:00:00 20 knots 221° 13°C
2014-10-27 03:00:00 18 knots 223° 12°C
2014-10-27 06:00:00 18 knots 225° 13°C
2014-10-27 09:00:00 19 knots 236° 14°C
2014-10-27 12:00:00 18 knots 238° 15°C
2014-10-27 15:00:00 17 knots 236° 14°C
2014-10-27 18:00:00 17 knots 223° 12°C
2014-10-27 21:00:00 18 knots 218° 13°C
2014-10-28 00:00:00 19 knots 215° 13°C
2014-10-28 03:00:00 18 knots 211° 13°C
2014-10-28 06:00:00 17 knots 206° 12°C